Loa, UT (84747)

4:23 AM MDT on October 21, 2014 (GMT -0600)
Loa | Change Station
CLOSE
Current Station
Personal Weather Station
Location: Loa, UT
Elevation: 7096 ft
Nearby Weather Stations

Elev 7096 ft 38.40 °N, 111.66 °W | Updated 23 minutes ago

Partly Cloudy
Partly Cloudy
41.6 °F
Feels Like 42 °F
N
2.0
Wind Variable Wind from NW
Gusts 5.0 mph

Today
High -- | Low -- °F
--% Chance of Precip.
Yesterday
High -- | Low -- °F
Precip. -- in
7:41 AM 6:39 PM
Waning Crescent, 6% visible
Pressure 29.92 in
Visibility 10.0 miles
Clouds Clear
Windchill 42 °F
Dew Point 36 °F
Humidity 79%
Rainfall 0.00 in
Snow Depth 0 in
UV 0 out of 12
Pollen 1.80 out of 12
Air Quality Not available.
Flu Activity Sporadic
METAR KBCE 210953Z AUTO 27006KT 10SM CLR 01/M01 A3015 RMK AO2 SLP130 T00111006 TSNO

More Conditions Fewer Conditions

Pressure 29.92 in
Visibility 10.0 miles
Clouds Clear
Windchill 42 °F
Dew Point 36 °F
Humidity 79%
Rainfall 0.00 in
Snow Depth 0 in
UV 0 out of 12
Pollen 1.80 out of 12
Air Quality Not available.
Flu Activity Sporadic
METAR KBCE 210953Z AUTO 27006KT 10SM CLR 01/M01 A3015 RMK AO2 SLP130 T00111006 TSNO

More Conditions Fewer Conditions

10-Day Weather Forecast

Almanac

Astronomy

Oct. 21, 2014 Rise Set
Actual Time 7:41 AM MDT 6:39 PM MDT
Civil Twilight 7:14 AM MDT 7:06 PM MDT
Nautical Twilight 6:43 AM MDT 7:37 PM MDT
Astronomical Twilight 6:12 AM MDT 8:08 PM MDT
Moon 5:30 AM MDT 5:34 PM MDT
Length of Visible Light 11h 52m
Length of Day
10h 58m
Tomorrow will be 2m 20s shorter.
Waning Crescent, 6% of the Moon is Illuminated
Today
Waning Crescent
Oct 23
New
Oct 30
First Quarter
Nov 6
Full
Nov 14
Last Quarter

Today's Extremes

State Highs State Lows

Community

WunderPhotos

Upload Photos

1,763,625 photos uploaded!

Nearby

Snow Depth

Station Depth Elevation
Black Flat-U.M. Creek 0 in 9400 ft
Farnsworth Lake 0 in 9600 ft
Box Creek 1 in 9800 ft
Gooseberry R.S. 0 in 7920 ft
Clayton Springs 0 in 10000 ft

Earthquake Activity

City Distance Mag. Time & Date
No recent earthquake activity has been reported nearby.
Minimum magnitude displayed is 2.5.

Coastal Water Temperatures

Place Temperature
No Stations Reporting

Nearby Weather Stations